sensor_id;sensor_type;location;lat;lon;timestamp;P1;durP1;ratioP1;P2;durP2;ratioP2
38302;SDS011;24103;42.454;27.400;2023-05-10T00:01:05;5.93;;;4.60;;
38302;SDS011;24103;42.454;27.400;2023-05-10T00:03:31;6.93;;;4.45;;
38302;SDS011;24103;42.454;27.400;2023-05-10T00:05:56;5.75;;;4.88;;
38302;SDS011;24103;42.454;27.400;2023-05-10T00:08:22;5.13;;;4.22;;
38302;SDS011;24103;42.454;27.400;2023-05-10T00:10:47;8.48;;;4.78;;
38302;SDS011;24103;42.454;27.400;2023-05-10T00:13:13;7.00;;;4.72;;
38302;SDS011;24103;42.454;27.400;2023-05-10T00:15:38;5.40;;;3.88;;
38302;SDS011;24103;42.454;27.400;2023-05-10T00:18:04;4.65;;;3.90;;
38302;SDS011;24103;42.454;27.400;2023-05-10T00:20:29;6.55;;;4.80;;
38302;SDS011;24103;42.454;27.400;2023-05-10T00:22:55;5.90;;;3.90;;
38302;SDS011;24103;42.454;27.400;2023-05-10T00:25:20;6.05;;;4.35;;
38302;SDS011;24103;42.454;27.400;2023-05-10T00:27:49;6.75;;;4.32;;
38302;SDS011;24103;42.454;27.400;2023-05-10T00:30:14;6.78;;;4.18;;
38302;SDS011;24103;42.454;27.400;2023-05-10T00:32:41;6.35;;;4.32;;
38302;SDS011;24103;42.454;27.400;2023-05-10T00:35:07;5.95;;;4.15;;
38302;SDS011;24103;42.454;27.400;2023-05-10T00:37:33;5.05;;;4.40;;
38302;SDS011;24103;42.454;27.400;2023-05-10T00:39:58;7.57;;;4.30;;
38302;SDS011;24103;42.454;27.400;2023-05-10T00:42:25;5.63;;;4.32;;
38302;SDS011;24103;42.454;27.400;2023-05-10T00:44:50;5.78;;;3.92;;
38302;SDS011;24103;42.454;27.400;2023-05-10T00:47:16;6.70;;;3.90;;
38302;SDS011;24103;42.454;27.400;2023-05-10T00:49:41;6.22;;;4.45;;
38302;SDS011;24103;42.454;27.400;2023-05-10T00:52:08;7.25;;;4.45;;
38302;SDS011;24103;42.454;27.400;2023-05-10T00:54:34;7.97;;;5.47;;
38302;SDS011;24103;42.454;27.400;2023-05-10T00:56:59;6.68;;;3.95;;
38302;SDS011;24103;42.454;27.400;2023-05-10T00:59:25;6.57;;;4.30;;
38302;SDS011;24103;42.454;27.400;2023-05-10T01:01:50;8.27;;;4.35;;
38302;SDS011;24103;42.454;27.400;2023-05-10T01:04:17;4.20;;;3.80;;
38302;SDS011;24103;42.454;27.400;2023-05-10T01:06:43;4.88;;;4.05;;
38302;SDS011;24103;42.454;27.400;2023-05-10T01:09:09;6.25;;;5.65;;
38302;SDS011;24103;42.454;27.400;2023-05-10T01:11:38;9.63;;;8.13;;
38302;SDS011;24103;42.454;27.400;2023-05-10T01:14:04;11.38;;;8.88;;
38302;SDS011;24103;42.454;27.400;2023-05-10T01:16:35;9.43;;;6.88;;
38302;SDS011;24103;42.454;27.400;2023-05-10T01:19:03;6.43;;;5.80;;
38302;SDS011;24103;42.454;27.400;2023-05-10T01:21:43;8.35;;;4.97;;
38302;SDS011;24103;42.454;27.400;2023-05-10T01:38:29;4.90;;;3.35;;
38302;SDS011;24103;42.454;27.400;2023-05-10T01:46:28;7.15;;;4.20;;
38302;SDS011;24103;42.454;27.400;2023-05-10T01:49:02;7.10;;;4.00;;
38302;SDS011;24103;42.454;27.400;2023-05-10T01:51:39;3.58;;;3.22;;
38302;SDS011;24103;42.454;27.400;2023-05-10T01:54:09;7.90;;;4.32;;
38302;SDS011;24103;42.454;27.400;2023-05-10T01:56:37;3.90;;;3.50;;
38302;SDS011;24103;42.454;27.400;2023-05-10T01:59:05;4.97;;;3.60;;
38302;SDS011;24103;42.454;27.400;2023-05-10T02:01:34;4.97;;;3.83;;
38302;SDS011;24103;42.454;27.400;2023-05-10T02:04:02;5.60;;;3.58;;
38302;SDS011;24103;42.454;27.400;2023-05-10T02:06:29;7.35;;;3.95;;
38302;SDS011;24103;42.454;27.400;2023-05-10T02:08:57;4.43;;;3.78;;
38302;SDS011;24103;42.454;27.400;2023-05-10T02:11:23;4.35;;;3.90;;
38302;SDS011;24103;42.454;27.400;2023-05-10T02:13:50;4.35;;;3.35;;
38302;SDS011;24103;42.454;27.400;2023-05-10T02:16:18;8.75;;;3.70;;
38302;SDS011;24103;42.454;27.400;2023-05-10T02:18:48;7.40;;;4.18;;
38302;SDS011;24103;42.454;27.400;2023-05-10T02:21:17;4.03;;;3.72;;
38302;SDS011;24103;42.454;27.400;2023-05-10T02:23:44;6.43;;;3.88;;
38302;SDS011;24103;42.454;27.400;2023-05-10T02:26:10;6.05;;;3.88;;
38302;SDS011;24103;42.454;27.400;2023-05-10T02:28:38;5.03;;;3.75;;
38302;SDS011;24103;42.454;27.400;2023-05-10T02:31:05;5.43;;;3.75;;
38302;SDS011;24103;42.454;27.400;2023-05-10T02:33:32;5.20;;;3.65;;
38302;SDS011;24103;42.454;27.400;2023-05-10T02:35:59;7.03;;;4.07;;
38302;SDS011;24103;42.454;27.400;2023-05-10T02:38:28;5.40;;;4.15;;
38302;SDS011;24103;42.454;27.400;2023-05-10T02:40:56;6.07;;;4.20;;
38302;SDS011;24103;42.454;27.400;2023-05-10T02:43:22;5.13;;;4.30;;
38302;SDS011;24103;42.454;27.400;2023-05-10T02:45:49;6.25;;;3.67;;
38302;SDS011;24103;42.454;27.400;2023-05-10T02:48:15;6.38;;;4.90;;
38302;SDS011;24103;42.454;27.400;2023-05-10T02:50:42;5.78;;;3.50;;
38302;SDS011;24103;42.454;27.400;2023-05-10T02:53:10;7.13;;;4.45;;
38302;SDS011;24103;42.454;27.400;2023-05-10T02:55:40;6.63;;;4.10;;
38302;SDS011;24103;42.454;27.400;2023-05-10T02:58:07;6.50;;;4.60;;
38302;SDS011;24103;42.454;27.400;2023-05-10T03:00:33;4.60;;;4.20;;
38302;SDS011;24103;42.454;27.400;2023-05-10T03:02:59;4.90;;;4.40;;
38302;SDS011;24103;42.454;27.400;2023-05-10T03:05:25;5.15;;;3.95;;
38302;SDS011;24103;42.454;27.400;2023-05-10T03:07:50;5.38;;;3.97;;
38302;SDS011;24103;42.454;27.400;2023-05-10T03:10:17;7.70;;;4.28;;
38302;SDS011;24103;42.454;27.400;2023-05-10T03:18:01;5.28;;;4.25;;
38302;SDS011;24103;42.454;27.400;2023-05-10T03:23:22;9.90;;;4.70;;
38302;SDS011;24103;42.454;27.400;2023-05-10T03:25:46;5.75;;;4.85;;
38302;SDS011;24103;42.454;27.400;2023-05-10T03:28:13;6.53;;;4.75;;
38302;SDS011;24103;42.454;27.400;2023-05-10T03:30:40;6.72;;;4.60;;
38302;SDS011;24103;42.454;27.400;2023-05-10T03:33:07;6.95;;;4.60;;
38302;SDS011;24103;42.454;27.400;2023-05-10T03:35:33;5.20;;;4.45;;
38302;SDS011;24103;42.454;27.400;2023-05-10T03:37:59;4.68;;;3.75;;
38302;SDS011;24103;42.454;27.400;2023-05-10T03:40:25;8.27;;;4.45;;
38302;SDS011;24103;42.454;27.400;2023-05-10T03:42:53;4.63;;;4.15;;
38302;SDS011;24103;42.454;27.400;2023-05-10T03:45:19;5.78;;;3.15;;
38302;SDS011;24103;42.454;27.400;2023-05-10T03:47:45;4.28;;;3.58;;
38302;SDS011;24103;42.454;27.400;2023-05-10T03:50:10;4.45;;;3.67;;
38302;SDS011;24103;42.454;27.400;2023-05-10T03:52:36;3.83;;;3.15;;
38302;SDS011;24103;42.454;27.400;2023-05-10T03:55:04;4.70;;;3.42;;
38302;SDS011;24103;42.454;27.400;2023-05-10T03:57:30;4.18;;;3.33;;
38302;SDS011;24103;42.454;27.400;2023-05-10T03:59:55;6.45;;;3.47;;
38302;SDS011;24103;42.454;27.400;2023-05-10T04:02:21;7.95;;;3.70;;
38302;SDS011;24103;42.454;27.400;2023-05-10T04:04:46;7.20;;;3.45;;
38302;SDS011;24103;42.454;27.400;2023-05-10T04:07:13;4.57;;;3.63;;
38302;SDS011;24103;42.454;27.400;2023-05-10T04:09:38;5.30;;;3.80;;
38302;SDS011;24103;42.454;27.400;2023-05-10T04:12:04;6.88;;;3.47;;
38302;SDS011;24103;42.454;27.400;2023-05-10T04:14:30;8.25;;;3.45;;
38302;SDS011;24103;42.454;27.400;2023-05-10T04:16:56;6.53;;;3.67;;
38302;SDS011;24103;42.454;27.400;2023-05-10T04:19:21;4.18;;;3.40;;
38302;SDS011;24103;42.454;27.400;2023-05-10T04:21:46;5.20;;;3.67;;
38302;SDS011;24103;42.454;27.400;2023-05-10T04:24:12;5.25;;;3.30;;
38302;SDS011;24103;42.454;27.400;2023-05-10T04:26:37;4.00;;;2.75;;
38302;SDS011;24103;42.454;27.400;2023-05-10T04:29:03;7.80;;;2.83;;
38302;SDS011;24103;42.454;27.400;2023-05-10T04:31:28;4.38;;;2.97;;
38302;SDS011;24103;42.454;27.400;2023-05-10T04:33:54;6.15;;;2.95;;
38302;SDS011;24103;42.454;27.400;2023-05-10T04:36:19;3.28;;;2.97;;
38302;SDS011;24103;42.454;27.400;2023-05-10T04:38:45;5.60;;;3.03;;
38302;SDS011;24103;42.454;27.400;2023-05-10T04:41:11;4.05;;;2.90;;
38302;SDS011;24103;42.454;27.400;2023-05-10T04:43:36;4.10;;;3.50;;
38302;SDS011;24103;42.454;27.400;2023-05-10T04:46:03;3.78;;;3.47;;
38302;SDS011;24103;42.454;27.400;2023-05-10T04:48:29;3.33;;;3.03;;
38302;SDS011;24103;42.454;27.400;2023-05-10T04:50:55;5.03;;;3.72;;
38302;SDS011;24103;42.454;27.400;2023-05-10T04:53:21;4.78;;;3.45;;
38302;SDS011;24103;42.454;27.400;2023-05-10T04:55:46;4.68;;;3.28;;
38302;SDS011;24103;42.454;27.400;2023-05-10T04:58:12;5.68;;;3.05;;
38302;SDS011;24103;42.454;27.400;2023-05-10T05:00:38;5.32;;;3.30;;
38302;SDS011;24103;42.454;27.400;2023-05-10T05:03:04;5.65;;;3.42;;
38302;SDS011;24103;42.454;27.400;2023-05-10T05:05:30;7.90;;;3.80;;
38302;SDS011;24103;42.454;27.400;2023-05-10T05:07:55;5.80;;;3.67;;
38302;SDS011;24103;42.454;27.400;2023-05-10T05:10:21;5.55;;;4.00;;
38302;SDS011;24103;42.454;27.400;2023-05-10T05:12:46;5.85;;;3.50;;
38302;SDS011;24103;42.454;27.400;2023-05-10T05:15:12;5.82;;;3.40;;
38302;SDS011;24103;42.454;27.400;2023-05-10T05:17:37;4.20;;;2.97;;
38302;SDS011;24103;42.454;27.400;2023-05-10T05:20:03;4.18;;;3.60;;
38302;SDS011;24103;42.454;27.400;2023-05-10T05:22:29;4.97;;;3.60;;
38302;SDS011;24103;42.454;27.400;2023-05-10T05:24:55;4.72;;;3.40;;
38302;SDS011;24103;42.454;27.400;2023-05-10T05:27:21;4.63;;;3.10;;
38302;SDS011;24103;42.454;27.400;2023-05-10T05:29:54;4.75;;;2.70;;
38302;SDS011;24103;42.454;27.400;2023-05-10T05:32:24;9.02;;;3.65;;
38302;SDS011;24103;42.454;27.400;2023-05-10T05:34:50;5.88;;;3.70;;
38302;SDS011;24103;42.454;27.400;2023-05-10T05:37:17;2.95;;;2.35;;
38302;SDS011;24103;42.454;27.400;2023-05-10T05:39:44;4.97;;;2.65;;
38302;SDS011;24103;42.454;27.400;2023-05-10T05:42:11;11.13;;;2.53;;
38302;SDS011;24103;42.454;27.400;2023-05-10T05:44:37;6.13;;;2.25;;
38302;SDS011;24103;42.454;27.400;2023-05-10T05:47:03;5.75;;;2.22;;
38302;SDS011;24103;42.454;27.400;2023-05-10T05:49:29;4.13;;;2.55;;
38302;SDS011;24103;42.454;27.400;2023-05-10T05:51:58;4.13;;;2.50;;
38302;SDS011;24103;42.454;27.400;2023-05-10T05:54:25;4.75;;;2.33;;
38302;SDS011;24103;42.454;27.400;2023-05-10T05:56:53;2.13;;;1.83;;
38302;SDS011;24103;42.454;27.400;2023-05-10T05:59:20;3.70;;;2.63;;
38302;SDS011;24103;42.454;27.400;2023-05-10T06:01:45;4.15;;;2.70;;
38302;SDS011;24103;42.454;27.400;2023-05-10T06:04:11;5.47;;;2.70;;
38302;SDS011;24103;42.454;27.400;2023-05-10T06:06:37;4.22;;;2.47;;
38302;SDS011;24103;42.454;27.400;2023-05-10T06:09:03;4.43;;;2.03;;
38302;SDS011;24103;42.454;27.400;2023-05-10T06:11:28;2.15;;;1.92;;
38302;SDS011;24103;42.454;27.400;2023-05-10T06:13:54;3.80;;;2.08;;
38302;SDS011;24103;42.454;27.400;2023-05-10T06:16:19;4.28;;;1.98;;
38302;SDS011;24103;42.454;27.400;2023-05-10T06:18:44;9.32;;;2.85;;
38302;SDS011;24103;42.454;27.400;2023-05-10T06:21:10;5.32;;;1.90;;
38302;SDS011;24103;42.454;27.400;2023-05-10T06:23:35;5.22;;;2.42;;
38302;SDS011;24103;42.454;27.400;2023-05-10T06:26:01;2.45;;;1.73;;
38302;SDS011;24103;42.454;27.400;2023-05-10T06:28:27;3.00;;;1.95;;
38302;SDS011;24103;42.454;27.400;2023-05-10T06:30:52;2.97;;;1.58;;
38302;SDS011;24103;42.454;27.400;2023-05-10T06:33:18;2.63;;;1.80;;
38302;SDS011;24103;42.454;27.400;2023-05-10T06:35:43;5.30;;;1.40;;
38302;SDS011;24103;42.454;27.400;2023-05-10T06:38:09;3.55;;;1.48;;
38302;SDS011;24103;42.454;27.400;2023-05-10T06:40:34;4.70;;;1.60;;
38302;SDS011;24103;42.454;27.400;2023-05-10T06:43:01;5.78;;;1.58;;
38302;SDS011;24103;42.454;27.400;2023-05-10T06:45:26;2.80;;;1.48;;
38302;SDS011;24103;42.454;27.400;2023-05-10T06:47:52;3.88;;;1.40;;
38302;SDS011;24103;42.454;27.400;2023-05-10T06:50:17;1.75;;;1.25;;
38302;SDS011;24103;42.454;27.400;2023-05-10T06:52:43;5.80;;;1.48;;
38302;SDS011;24103;42.454;27.400;2023-05-10T06:55:09;3.15;;;1.35;;
38302;SDS011;24103;42.454;27.400;2023-05-10T06:57:34;5.32;;;1.70;;
38302;SDS011;24103;42.454;27.400;2023-05-10T07:00:00;3.45;;;1.67;;
38302;SDS011;24103;42.454;27.400;2023-05-10T07:02:26;2.45;;;1.00;;
38302;SDS011;24103;42.454;27.400;2023-05-10T07:04:51;5.18;;;1.20;;
38302;SDS011;24103;42.454;27.400;2023-05-10T07:13:48;4.15;;;1.30;;
38302;SDS011;24103;42.454;27.400;2023-05-10T07:16:14;1.65;;;1.00;;
38302;SDS011;24103;42.454;27.400;2023-05-10T07:18:40;2.80;;;1.23;;
38302;SDS011;24103;42.454;27.400;2023-05-10T07:21:05;2.25;;;1.00;;
38302;SDS011;24103;42.454;27.400;2023-05-10T07:23:31;2.88;;;1.38;;
38302;SDS011;24103;42.454;27.400;2023-05-10T07:25:56;3.63;;;1.30;;
38302;SDS011;24103;42.454;27.400;2023-05-10T07:28:22;8.43;;;1.73;;
38302;SDS011;24103;42.454;27.400;2023-05-10T07:30:49;7.25;;;2.28;;
38302;SDS011;24103;42.454;27.400;2023-05-10T07:33:15;1.58;;;1.13;;
38302;SDS011;24103;42.454;27.400;2023-05-10T07:35:41;2.33;;;1.27;;
38302;SDS011;24103;42.454;27.400;2023-05-10T07:38:07;2.80;;;1.02;;
38302;SDS011;24103;42.454;27.400;2023-05-10T07:40:32;3.78;;;1.40;;
38302;SDS011;24103;42.454;27.400;2023-05-10T07:42:58;3.70;;;1.48;;
38302;SDS011;24103;42.454;27.400;2023-05-10T07:45:25;3.97;;;1.40;;
38302;SDS011;24103;42.454;27.400;2023-05-10T07:47:51;2.58;;;1.08;;
38302;SDS011;24103;42.454;27.400;2023-05-10T07:50:17;1.98;;;1.23;;
38302;SDS011;24103;42.454;27.400;2023-05-10T07:52:42;1.40;;;1.00;;
38302;SDS011;24103;42.454;27.400;2023-05-10T07:55:08;1.80;;;1.13;;
38302;SDS011;24103;42.454;27.400;2023-05-10T07:57:34;2.08;;;1.20;;
38302;SDS011;24103;42.454;27.400;2023-05-10T08:00:00;2.75;;;1.75;;
38302;SDS011;24103;42.454;27.400;2023-05-10T08:02:25;4.50;;;1.67;;
38302;SDS011;24103;42.454;27.400;2023-05-10T08:04:51;4.55;;;1.20;;
38302;SDS011;24103;42.454;27.400;2023-05-10T08:07:17;1.52;;;1.15;;
38302;SDS011;24103;42.454;27.400;2023-05-10T08:09:42;5.93;;;1.60;;
38302;SDS011;24103;42.454;27.400;2023-05-10T08:12:07;1.73;;;1.63;;
38302;SDS011;24103;42.454;27.400;2023-05-10T08:14:33;5.00;;;1.73;;
38302;SDS011;24103;42.454;27.400;2023-05-10T08:17:01;1.85;;;1.30;;
38302;SDS011;24103;42.454;27.400;2023-05-10T08:19:27;3.30;;;1.70;;
38302;SDS011;24103;42.454;27.400;2023-05-10T08:21:52;3.10;;;1.70;;
38302;SDS011;24103;42.454;27.400;2023-05-10T08:24:20;3.47;;;2.08;;
38302;SDS011;24103;42.454;27.400;2023-05-10T08:26:46;5.75;;;2.70;;
38302;SDS011;24103;42.454;27.400;2023-05-10T08:29:12;2.10;;;1.48;;
38302;SDS011;24103;42.454;27.400;2023-05-10T08:31:38;5.43;;;1.70;;
38302;SDS011;24103;42.454;27.400;2023-05-10T08:34:03;3.53;;;1.67;;
38302;SDS011;24103;42.454;27.400;2023-05-10T08:36:28;2.55;;;1.80;;
38302;SDS011;24103;42.454;27.400;2023-05-10T08:38:54;3.70;;;1.65;;
38302;SDS011;24103;42.454;27.400;2023-05-10T08:41:20;4.85;;;1.70;;
38302;SDS011;24103;42.454;27.400;2023-05-10T08:43:47;3.42;;;2.13;;
38302;SDS011;24103;42.454;27.400;2023-05-10T08:46:15;7.45;;;1.85;;
38302;SDS011;24103;42.454;27.400;2023-05-10T08:48:43;3.40;;;1.85;;
38302;SDS011;24103;42.454;27.400;2023-05-10T08:51:17;2.13;;;1.30;;
38302;SDS011;24103;42.454;27.400;2023-05-10T08:53:44;2.43;;;1.50;;
38302;SDS011;24103;42.454;27.400;2023-05-10T08:56:10;2.97;;;1.70;;
38302;SDS011;24103;42.454;27.400;2023-05-10T08:58:36;2.42;;;1.17;;
38302;SDS011;24103;42.454;27.400;2023-05-10T09:01:03;3.03;;;1.63;;
38302;SDS011;24103;42.454;27.400;2023-05-10T09:03:29;3.83;;;1.70;;
38302;SDS011;24103;42.454;27.400;2023-05-10T09:05:55;3.22;;;1.58;;
38302;SDS011;24103;42.454;27.400;2023-05-10T09:08:22;6.05;;;1.70;;
38302;SDS011;24103;42.454;27.400;2023-05-10T09:10:51;3.55;;;1.70;;
38302;SDS011;24103;42.454;27.400;2023-05-10T09:13:17;5.60;;;1.67;;
38302;SDS011;24103;42.454;27.400;2023-05-10T09:15:44;5.97;;;2.25;;
38302;SDS011;24103;42.454;27.400;2023-05-10T09:18:10;2.45;;;1.52;;
38302;SDS011;24103;42.454;27.400;2023-05-10T09:20:36;2.00;;;1.80;;
38302;SDS011;24103;42.454;27.400;2023-05-10T09:23:02;2.88;;;1.65;;
38302;SDS011;24103;42.454;27.400;2023-05-10T09:25:27;5.30;;;2.10;;
38302;SDS011;24103;42.454;27.400;2023-05-10T09:27:53;3.63;;;1.70;;
38302;SDS011;24103;42.454;27.400;2023-05-10T09:30:28;2.20;;;1.75;;
38302;SDS011;24103;42.454;27.400;2023-05-10T09:32:56;4.03;;;1.73;;
38302;SDS011;24103;42.454;27.400;2023-05-10T09:35:23;3.42;;;1.90;;
38302;SDS011;24103;42.454;27.400;2023-05-10T09:37:51;6.50;;;2.30;;
38302;SDS011;24103;42.454;27.400;2023-05-10T09:40:28;3.50;;;1.75;;
38302;SDS011;24103;42.454;27.400;2023-05-10T09:42:59;3.40;;;1.90;;
38302;SDS011;24103;42.454;27.400;2023-05-10T09:45:32;2.80;;;2.10;;
38302;SDS011;24103;42.454;27.400;2023-05-10T09:48:00;3.45;;;1.80;;
38302;SDS011;24103;42.454;27.400;2023-05-10T09:50:27;10.13;;;2.65;;
38302;SDS011;24103;42.454;27.400;2023-05-10T09:52:54;4.03;;;2.30;;
38302;SDS011;24103;42.454;27.400;2023-05-10T09:55:25;3.88;;;2.30;;
38302;SDS011;24103;42.454;27.400;2023-05-10T09:58:02;3.75;;;2.10;;
38302;SDS011;24103;42.454;27.400;2023-05-10T10:00:33;4.18;;;1.90;;
38302;SDS011;24103;42.454;27.400;2023-05-10T10:03:01;4.45;;;3.13;;
38302;SDS011;24103;42.454;27.400;2023-05-10T10:05:28;7.07;;;2.47;;
38302;SDS011;24103;42.454;27.400;2023-05-10T10:07:55;4.93;;;1.77;;
38302;SDS011;24103;42.454;27.400;2023-05-10T10:10:22;5.57;;;2.28;;
38302;SDS011;24103;42.454;27.400;2023-05-10T10:12:49;4.05;;;2.10;;
38302;SDS011;24103;42.454;27.400;2023-05-10T10:15:14;4.88;;;1.85;;
38302;SDS011;24103;42.454;27.400;2023-05-10T10:17:41;4.00;;;2.22;;
38302;SDS011;24103;42.454;27.400;2023-05-10T10:20:08;3.95;;;2.38;;
38302;SDS011;24103;42.454;27.400;2023-05-10T10:22:34;5.93;;;2.33;;
38302;SDS011;24103;42.454;27.400;2023-05-10T10:25:01;3.53;;;2.13;;
38302;SDS011;24103;42.454;27.400;2023-05-10T10:27:34;6.18;;;2.00;;
38302;SDS011;24103;42.454;27.400;2023-05-10T10:35:57;5.82;;;1.90;;
38302;SDS011;24103;42.454;27.400;2023-05-10T10:38:25;2.40;;;1.90;;
38302;SDS011;24103;42.454;27.400;2023-05-10T10:41:03;5.38;;;2.25;;
38302;SDS011;24103;42.454;27.400;2023-05-10T10:43:34;3.95;;;1.75;;
38302;SDS011;24103;42.454;27.400;2023-05-10T10:46:13;2.97;;;2.08;;
38302;SDS011;24103;42.454;27.400;2023-05-10T10:48:49;6.03;;;1.98;;
38302;SDS011;24103;42.454;27.400;2023-05-10T10:51:36;3.35;;;1.95;;
38302;SDS011;24103;42.454;27.400;2023-05-10T10:54:09;4.38;;;1.98;;
38302;SDS011;24103;42.454;27.400;2023-05-10T10:56:35;8.68;;;2.33;;
38302;SDS011;24103;42.454;27.400;2023-05-10T10:59:01;3.60;;;2.00;;
38302;SDS011;24103;42.454;27.400;2023-05-10T11:01:26;3.13;;;1.88;;
38302;SDS011;24103;42.454;27.400;2023-05-10T11:06:30;3.63;;;2.25;;
38302;SDS011;24103;42.454;27.400;2023-05-10T11:08:59;4.45;;;2.30;;
38302;SDS011;24103;42.454;27.400;2023-05-10T11:11:31;5.07;;;2.15;;
38302;SDS011;24103;42.454;27.400;2023-05-10T11:14:02;5.38;;;2.60;;
38302;SDS011;24103;42.454;27.400;2023-05-10T11:16:41;3.60;;;1.92;;
38302;SDS011;24103;42.454;27.400;2023-05-10T11:19:11;4.55;;;2.22;;
38302;SDS011;24103;42.454;27.400;2023-05-10T11:21:51;2.10;;;1.48;;
38302;SDS011;24103;42.454;27.400;2023-05-10T11:24:38;4.72;;;2.17;;
38302;SDS011;24103;42.454;27.400;2023-05-10T11:27:03;4.63;;;1.70;;
38302;SDS011;24103;42.454;27.400;2023-05-10T11:29:29;6.03;;;2.88;;
38302;SDS011;24103;42.454;27.400;2023-05-10T11:31:56;7.40;;;2.72;;
38302;SDS011;24103;42.454;27.400;2023-05-10T11:34:23;4.95;;;1.85;;
38302;SDS011;24103;42.454;27.400;2023-05-10T11:36:54;8.88;;;2.85;;
38302;SDS011;24103;42.454;27.400;2023-05-10T11:39:20;3.25;;;1.83;;
38302;SDS011;24103;42.454;27.400;2023-05-10T11:41:49;6.53;;;2.75;;
38302;SDS011;24103;42.454;27.400;2023-05-10T11:44:15;1.85;;;1.75;;
38302;SDS011;24103;42.454;27.400;2023-05-10T11:46:40;10.68;;;3.85;;
38302;SDS011;24103;42.454;27.400;2023-05-10T11:49:06;2.72;;;1.60;;
38302;SDS011;24103;42.454;27.400;2023-05-10T11:51:35;2.35;;;1.38;;
38302;SDS011;24103;42.454;27.400;2023-05-10T11:54:05;9.18;;;2.20;;
38302;SDS011;24103;42.454;27.400;2023-05-10T11:56:33;3.10;;;1.90;;
38302;SDS011;24103;42.454;27.400;2023-05-10T11:58:59;4.00;;;1.92;;
38302;SDS011;24103;42.454;27.400;2023-05-10T12:01:27;2.40;;;2.00;;
38302;SDS011;24103;42.454;27.400;2023-05-10T12:03:53;5.90;;;2.72;;
38302;SDS011;24103;42.454;27.400;2023-05-10T12:06:26;5.40;;;2.08;;
38302;SDS011;24103;42.454;27.400;2023-05-10T12:08:54;2.92;;;1.75;;
38302;SDS011;24103;42.454;27.400;2023-05-10T12:11:20;2.85;;;1.80;;
38302;SDS011;24103;42.454;27.400;2023-05-10T12:13:49;4.50;;;1.90;;
38302;SDS011;24103;42.454;27.400;2023-05-10T12:16:19;2.83;;;1.80;;
38302;SDS011;24103;42.454;27.400;2023-05-10T12:18:52;5.40;;;2.00;;
38302;SDS011;24103;42.454;27.400;2023-05-10T12:21:19;4.65;;;2.05;;
38302;SDS011;24103;42.454;27.400;2023-05-10T12:23:46;2.17;;;1.67;;
38302;SDS011;24103;42.454;27.400;2023-05-10T12:26:13;4.72;;;2.00;;
38302;SDS011;24103;42.454;27.400;2023-05-10T12:28:39;4.25;;;2.80;;
38302;SDS011;24103;42.454;27.400;2023-05-10T12:31:05;3.00;;;2.03;;
38302;SDS011;24103;42.454;27.400;2023-05-10T12:33:35;5.97;;;1.65;;
38302;SDS011;24103;42.454;27.400;2023-05-10T12:36:07;2.78;;;2.30;;
38302;SDS011;24103;42.454;27.400;2023-05-10T12:38:38;2.40;;;2.20;;
38302;SDS011;24103;42.454;27.400;2023-05-10T12:41:11;3.40;;;1.40;;
38302;SDS011;24103;42.454;27.400;2023-05-10T12:43:38;4.00;;;1.83;;
38302;SDS011;24103;42.454;27.400;2023-05-10T12:46:05;2.95;;;2.28;;
38302;SDS011;24103;42.454;27.400;2023-05-10T12:48:32;3.15;;;2.33;;
38302;SDS011;24103;42.454;27.400;2023-05-10T12:50:59;4.55;;;2.75;;
38302;SDS011;24103;42.454;27.400;2023-05-10T12:53:25;4.03;;;2.28;;
38302;SDS011;24103;42.454;27.400;2023-05-10T12:55:50;3.88;;;2.33;;
38302;SDS011;24103;42.454;27.400;2023-05-10T12:58:16;5.07;;;2.20;;
38302;SDS011;24103;42.454;27.400;2023-05-10T13:00:42;2.30;;;2.10;;
38302;SDS011;24103;42.454;27.400;2023-05-10T13:03:08;4.82;;;1.95;;
38302;SDS011;24103;42.454;27.400;2023-05-10T13:05:34;3.47;;;2.15;;
38302;SDS011;24103;42.454;27.400;2023-05-10T13:08:01;3.85;;;2.15;;
38302;SDS011;24103;42.454;27.400;2023-05-10T13:10:28;4.47;;;2.13;;
38302;SDS011;24103;42.454;27.400;2023-05-10T13:12:55;4.40;;;2.42;;
38302;SDS011;24103;42.454;27.400;2023-05-10T13:15:20;4.93;;;2.75;;
38302;SDS011;24103;42.454;27.400;2023-05-10T13:17:46;4.72;;;2.33;;
38302;SDS011;24103;42.454;27.400;2023-05-10T13:20:11;4.80;;;2.35;;
38302;SDS011;24103;42.454;27.400;2023-05-10T13:22:37;4.00;;;2.00;;
38302;SDS011;24103;42.454;27.400;2023-05-10T13:25:02;2.08;;;1.63;;
38302;SDS011;24103;42.454;27.400;2023-05-10T13:27:28;2.75;;;2.35;;
38302;SDS011;24103;42.454;27.400;2023-05-10T13:29:54;8.27;;;2.72;;
38302;SDS011;24103;42.454;27.400;2023-05-10T13:32:20;6.35;;;2.28;;
38302;SDS011;24103;42.454;27.400;2023-05-10T13:34:45;3.92;;;2.22;;
38302;SDS011;24103;42.454;27.400;2023-05-10T13:37:11;3.63;;;2.15;;
38302;SDS011;24103;42.454;27.400;2023-05-10T13:39:36;5.15;;;3.00;;
38302;SDS011;24103;42.454;27.400;2023-05-10T13:42:02;4.75;;;2.90;;
38302;SDS011;24103;42.454;27.400;2023-05-10T13:44:29;5.22;;;2.08;;
38302;SDS011;24103;42.454;27.400;2023-05-10T13:46:55;3.65;;;2.10;;
38302;SDS011;24103;42.454;27.400;2023-05-10T13:49:21;2.95;;;2.13;;
38302;SDS011;24103;42.454;27.400;2023-05-10T13:51:47;3.75;;;2.30;;
38302;SDS011;24103;42.454;27.400;2023-05-10T13:54:12;6.38;;;2.58;;
38302;SDS011;24103;42.454;27.400;2023-05-10T13:56:38;5.60;;;2.17;;
38302;SDS011;24103;42.454;27.400;2023-05-10T13:59:04;2.72;;;1.95;;
38302;SDS011;24103;42.454;27.400;2023-05-10T14:01:29;5.72;;;2.45;;
38302;SDS011;24103;42.454;27.400;2023-05-10T14:03:56;3.15;;;2.45;;
38302;SDS011;24103;42.454;27.400;2023-05-10T14:06:21;6.10;;;2.10;;
38302;SDS011;24103;42.454;27.400;2023-05-10T14:08:47;2.63;;;2.35;;
38302;SDS011;24103;42.454;27.400;2023-05-10T14:11:12;5.13;;;2.38;;
38302;SDS011;24103;42.454;27.400;2023-05-10T14:13:38;5.07;;;2.10;;
38302;SDS011;24103;42.454;27.400;2023-05-10T14:16:04;5.72;;;2.13;;
38302;SDS011;24103;42.454;27.400;2023-05-10T14:18:30;5.78;;;2.28;;
38302;SDS011;24103;42.454;27.400;2023-05-10T14:20:55;7.07;;;2.42;;
38302;SDS011;24103;42.454;27.400;2023-05-10T14:23:21;3.75;;;2.20;;
38302;SDS011;24103;42.454;27.400;2023-05-10T14:25:51;4.53;;;2.38;;
38302;SDS011;24103;42.454;27.400;2023-05-10T14:28:17;4.95;;;2.58;;
38302;SDS011;24103;42.454;27.400;2023-05-10T14:30:43;2.47;;;1.83;;
38302;SDS011;24103;42.454;27.400;2023-05-10T14:33:09;5.90;;;2.20;;
38302;SDS011;24103;42.454;27.400;2023-05-10T14:35:35;6.00;;;2.15;;
38302;SDS011;24103;42.454;27.400;2023-05-10T14:38:01;4.28;;;2.15;;
38302;SDS011;24103;42.454;27.400;2023-05-10T14:40:28;4.28;;;2.20;;
38302;SDS011;24103;42.454;27.400;2023-05-10T14:42:54;5.47;;;2.25;;
38302;SDS011;24103;42.454;27.400;2023-05-10T14:45:20;6.25;;;2.38;;
38302;SDS011;24103;42.454;27.400;2023-05-10T14:47:46;18.85;;;3.65;;
38302;SDS011;24103;42.454;27.400;2023-05-10T14:50:11;3.40;;;2.20;;
38302;SDS011;24103;42.454;27.400;2023-05-10T14:52:36;7.32;;;2.17;;
38302;SDS011;24103;42.454;27.400;2023-05-10T14:55:02;4.10;;;2.00;;
38302;SDS011;24103;42.454;27.400;2023-05-10T14:57:28;6.35;;;2.42;;
38302;SDS011;24103;42.454;27.400;2023-05-10T14:59:55;5.18;;;1.92;;
38302;SDS011;24103;42.454;27.400;2023-05-10T15:02:21;4.53;;;2.28;;
38302;SDS011;24103;42.454;27.400;2023-05-10T15:04:47;7.20;;;2.50;;
38302;SDS011;24103;42.454;27.400;2023-05-10T15:07:12;5.25;;;2.42;;
38302;SDS011;24103;42.454;27.400;2023-05-10T15:09:39;4.40;;;2.53;;
38302;SDS011;24103;42.454;27.400;2023-05-10T15:12:05;7.00;;;2.55;;
38302;SDS011;24103;42.454;27.400;2023-05-10T15:14:30;5.85;;;2.33;;